sensor_id;sensor_type;location;lat;lon;timestamp;pressure;altitude;pressure_sealevel;temperature;humidity
76478;BME280;65309;49.790;18.972;2023-04-15T00:02:43;95387.13;;;7.75;65.11
76478;BME280;65309;49.790;18.972;2023-04-15T00:07:46;95392.03;;;7.60;67.66
76478;BME280;65309;49.790;18.972;2023-04-15T00:12:50;95403.50;;;7.53;68.47
76478;BME280;65309;49.790;18.972;2023-04-15T00:17:53;95397.63;;;7.82;64.39
76478;BME280;65309;49.790;18.972;2023-04-15T00:22:55;95404.25;;;7.54;67.10
76478;BME280;65309;49.790;18.972;2023-04-15T00:27:58;95412.13;;;7.77;64.41
76478;BME280;65309;49.790;18.972;2023-04-15T00:33:00;95413.28;;;7.54;65.98
76478;BME280;65309;49.790;18.972;2023-04-15T00:38:06;95411.44;;;7.40;65.12
76478;BME280;65309;49.790;18.972;2023-04-15T00:43:12;95413.97;;;7.07;68.80
76478;BME280;65309;49.790;18.972;2023-04-15T00:48:14;95418.97;;;6.77;71.38
76478;BME280;65309;49.790;18.972;2023-04-15T00:53:17;95423.16;;;6.41;72.26
76478;BME280;65309;49.790;18.972;2023-04-15T00:58:20;95427.66;;;6.18;75.37
76478;BME280;65309;49.790;18.972;2023-04-15T01:03:22;95430.94;;;6.22;73.59
76478;BME280;65309;49.790;18.972;2023-04-15T01:08:26;95430.03;;;6.05;74.21
76478;BME280;65309;49.790;18.972;2023-04-15T01:13:29;95430.44;;;5.98;73.27
76478;BME280;65309;49.790;18.972;2023-04-15T01:18:32;95435.56;;;5.70;74.41
76478;BME280;65309;49.790;18.972;2023-04-15T01:23:35;95433.06;;;5.87;71.31
76478;BME280;65309;49.790;18.972;2023-04-15T01:28:40;95438.00;;;5.68;74.47
76478;BME280;65309;49.790;18.972;2023-04-15T01:33:42;95442.34;;;5.54;73.09
76478;BME280;65309;49.790;18.972;2023-04-15T01:38:44;95447.47;;;5.47;73.63
76478;BME280;65309;49.790;18.972;2023-04-15T01:43:48;95455.28;;;5.34;72.74
76478;BME280;65309;49.790;18.972;2023-04-15T01:48:50;95458.44;;;5.12;75.33
76478;BME280;65309;49.790;18.972;2023-04-15T01:53:52;95476.66;;;5.30;73.60
76478;BME280;65309;49.790;18.972;2023-04-15T01:58:55;95488.78;;;5.08;74.82
76478;BME280;65309;49.790;18.972;2023-04-15T02:03:57;95495.19;;;5.05;76.26
76478;BME280;65309;49.790;18.972;2023-04-15T02:08:59;95495.75;;;5.09;76.62
76478;BME280;65309;49.790;18.972;2023-04-15T02:14:03;95507.34;;;5.34;76.25
76478;BME280;65309;49.790;18.972;2023-04-15T02:19:06;95496.09;;;5.32;76.76
76478;BME280;65309;49.790;18.972;2023-04-15T02:24:08;95504.31;;;5.32;76.16
76478;BME280;65309;49.790;18.972;2023-04-15T02:29:12;95502.44;;;5.38;76.08
76478;BME280;65309;49.790;18.972;2023-04-15T02:34:14;95505.59;;;5.01;79.84
76478;BME280;65309;49.790;18.972;2023-04-15T02:39:16;95514.81;;;4.60;80.67
76478;BME280;65309;49.790;18.972;2023-04-15T02:44:20;95525.84;;;4.36;81.24
76478;BME280;65309;49.790;18.972;2023-04-15T02:49:24;95523.97;;;4.04;83.55
76478;BME280;65309;49.790;18.972;2023-04-15T02:54:26;95518.38;;;3.98;83.48
76478;BME280;65309;49.790;18.972;2023-04-15T02:59:33;95514.47;;;3.90;84.43
76478;BME280;65309;49.790;18.972;2023-04-15T03:04:35;95523.03;;;3.83;85.09
76478;BME280;65309;49.790;18.972;2023-04-15T03:09:37;95534.13;;;3.56;86.82
76478;BME280;65309;49.790;18.972;2023-04-15T03:14:42;95535.50;;;3.51;87.76
76478;BME280;65309;49.790;18.972;2023-04-15T03:19:44;95534.75;;;3.51;87.68
76478;BME280;65309;49.790;18.972;2023-04-15T03:24:46;95524.75;;;3.48;87.80
76478;BME280;65309;49.790;18.972;2023-04-15T03:29:50;95530.41;;;3.35;88.27
76478;BME280;65309;49.790;18.972;2023-04-15T03:34:52;95542.44;;;3.29;87.99
76478;BME280;65309;49.790;18.972;2023-04-15T03:39:54;95525.53;;;2.97;89.47
76478;BME280;65309;49.790;18.972;2023-04-15T03:44:58;95539.97;;;2.98;90.34
76478;BME280;65309;49.790;18.972;2023-04-15T03:50:00;95540.44;;;2.87;90.23
76478;BME280;65309;49.790;18.972;2023-04-15T03:55:02;95545.59;;;2.94;91.12
76478;BME280;65309;49.790;18.972;2023-04-15T04:00:07;95544.38;;;2.95;90.79
76478;BME280;65309;49.790;18.972;2023-04-15T04:05:10;95547.69;;;2.99;90.16
76478;BME280;65309;49.790;18.972;2023-04-15T04:10:12;95544.34;;;3.04;89.81
76478;BME280;65309;49.790;18.972;2023-04-15T04:15:15;95552.09;;;2.97;89.73
76478;BME280;65309;49.790;18.972;2023-04-15T04:20:17;95561.94;;;3.12;90.38
76478;BME280;65309;49.790;18.972;2023-04-15T04:25:19;95559.44;;;3.33;89.76
76478;BME280;65309;49.790;18.972;2023-04-15T04:30:22;95558.16;;;3.43;88.93
76478;BME280;65309;49.790;18.972;2023-04-15T04:35:24;95561.16;;;3.54;89.69
76478;BME280;65309;49.790;18.972;2023-04-15T04:40:27;95567.50;;;3.60;88.93
76478;BME280;65309;49.790;18.972;2023-04-15T04:45:30;95571.38;;;3.77;88.75
76478;BME280;65309;49.790;18.972;2023-04-15T04:50:32;95572.16;;;4.01;88.42
76478;BME280;65309;49.790;18.972;2023-04-15T04:55:34;95574.31;;;4.21;85.76
76478;BME280;65309;49.790;18.972;2023-04-15T05:00:40;95577.59;;;4.49;84.93
76478;BME280;65309;49.790;18.972;2023-04-15T05:05:42;95580.84;;;4.62;86.33
76478;BME280;65309;49.790;18.972;2023-04-15T05:10:45;95584.66;;;4.79;84.73
76478;BME280;65309;49.790;18.972;2023-04-15T05:15:48;95590.66;;;5.22;82.70
76478;BME280;65309;49.790;18.972;2023-04-15T05:20:50;95598.00;;;5.45;82.21
76478;BME280;65309;49.790;18.972;2023-04-15T05:25:52;95596.78;;;5.81;82.74
76478;BME280;65309;49.790;18.972;2023-04-15T05:30:55;95600.75;;;6.09;82.35
76478;BME280;65309;49.790;18.972;2023-04-15T05:35:58;95581.34;;;6.33;78.80
76478;BME280;65309;49.790;18.972;2023-04-15T05:41:00;95592.06;;;6.51;76.14
76478;BME280;65309;49.790;18.972;2023-04-15T05:46:03;95601.97;;;6.89;69.00
76478;BME280;65309;49.790;18.972;2023-04-15T05:51:05;95600.66;;;7.05;69.19
76478;BME280;65309;49.790;18.972;2023-04-15T05:56:07;95603.56;;;7.21;70.24
76478;BME280;65309;49.790;18.972;2023-04-15T06:01:11;95618.78;;;7.48;67.17
76478;BME280;65309;49.790;18.972;2023-04-15T06:06:13;95621.47;;;7.68;68.03
76478;BME280;65309;49.790;18.972;2023-04-15T06:11:16;95621.41;;;7.94;67.03
76478;BME280;65309;49.790;18.972;2023-04-15T06:16:19;95618.59;;;8.20;65.28
76478;BME280;65309;49.790;18.972;2023-04-15T06:21:22;95626.06;;;8.51;65.83
76478;BME280;65309;49.790;18.972;2023-04-15T06:26:24;95621.88;;;8.66;64.66
76478;BME280;65309;49.790;18.972;2023-04-15T06:31:27;95620.94;;;8.81;64.69
76478;BME280;65309;49.790;18.972;2023-04-15T06:36:29;95629.41;;;8.71;64.86
76478;BME280;65309;49.790;18.972;2023-04-15T06:41:31;95634.22;;;8.88;65.74
76478;BME280;65309;49.790;18.972;2023-04-15T06:46:35;95627.56;;;9.22;62.56
76478;BME280;65309;49.790;18.972;2023-04-15T06:51:37;95630.84;;;9.37;63.41
76478;BME280;65309;49.790;18.972;2023-04-15T06:56:39;95631.13;;;9.50;61.15
76478;BME280;65309;49.790;18.972;2023-04-15T07:01:42;95632.38;;;9.49;61.78
76478;BME280;65309;49.790;18.972;2023-04-15T07:06:44;95637.41;;;10.06;61.86
76478;BME280;65309;49.790;18.972;2023-04-15T07:11:46;95633.88;;;10.56;60.73
76478;BME280;65309;49.790;18.972;2023-04-15T07:16:51;95644.97;;;11.08;62.17
76478;BME280;65309;49.790;18.972;2023-04-15T07:21:54;95648.97;;;11.18;57.83
76478;BME280;65309;49.790;18.972;2023-04-15T07:26:56;95639.81;;;11.34;52.67
76478;BME280;65309;49.790;18.972;2023-04-15T07:32:03;95641.63;;;11.73;57.36
76478;BME280;65309;49.790;18.972;2023-04-15T07:37:05;95655.13;;;11.41;55.00
76478;BME280;65309;49.790;18.972;2023-04-15T07:42:08;95645.88;;;12.09;56.86
76478;BME280;65309;49.790;18.972;2023-04-15T07:47:11;95653.94;;;12.07;56.85
76478;BME280;65309;49.790;18.972;2023-04-15T07:52:13;95653.63;;;12.16;57.45
76478;BME280;65309;49.790;18.972;2023-04-15T07:57:15;95647.69;;;12.31;54.39
76478;BME280;65309;49.790;18.972;2023-04-15T08:02:19;95648.50;;;12.50;53.64
76478;BME280;65309;49.790;18.972;2023-04-15T08:07:22;95650.31;;;12.72;53.58
76478;BME280;65309;49.790;18.972;2023-04-15T08:12:24;95658.72;;;12.61;54.45
76478;BME280;65309;49.790;18.972;2023-04-15T08:17:28;95663.56;;;13.03;53.77
76478;BME280;65309;49.790;18.972;2023-04-15T08:22:30;95661.63;;;11.90;55.85
76478;BME280;65309;49.790;18.972;2023-04-15T08:27:32;95663.91;;;11.91;55.16
76478;BME280;65309;49.790;18.972;2023-04-15T08:32:35;95659.59;;;11.90;53.59
76478;BME280;65309;49.790;18.972;2023-04-15T08:37:38;95658.53;;;11.99;55.35
76478;BME280;65309;49.790;18.972;2023-04-15T08:42:43;95650.75;;;12.27;50.72
76478;BME280;65309;49.790;18.972;2023-04-15T08:47:51;95654.47;;;13.83;52.33
76478;BME280;65309;49.790;18.972;2023-04-15T08:52:55;95651.91;;;14.62;44.52
76478;BME280;65309;49.790;18.972;2023-04-15T08:58:00;95663.91;;;14.25;43.23
76478;BME280;65309;49.790;18.972;2023-04-15T09:03:03;95661.63;;;13.60;44.96
76478;BME280;65309;49.790;18.972;2023-04-15T09:08:06;95663.03;;;13.85;46.69
76478;BME280;65309;49.790;18.972;2023-04-15T09:13:08;95671.47;;;13.61;45.09
76478;BME280;65309;49.790;18.972;2023-04-15T09:18:11;95662.66;;;12.95;45.96
76478;BME280;65309;49.790;18.972;2023-04-15T09:23:16;95673.66;;;12.82;46.48
76478;BME280;65309;49.790;18.972;2023-04-15T09:28:23;95667.97;;;13.92;44.81
76478;BME280;65309;49.790;18.972;2023-04-15T09:33:28;95672.56;;;14.21;45.18
76478;BME280;65309;49.790;18.972;2023-04-15T09:38:31;95658.44;;;14.19;42.90
76478;BME280;65309;49.790;18.972;2023-04-15T09:43:36;95653.94;;;14.16;42.62
76478;BME280;65309;49.790;18.972;2023-04-15T09:48:41;95667.72;;;13.90;42.85
76478;BME280;65309;49.790;18.972;2023-04-15T09:53:43;95666.38;;;14.28;42.96
76478;BME280;65309;49.790;18.972;2023-04-15T09:58:45;95668.84;;;15.03;41.37
76478;BME280;65309;49.790;18.972;2023-04-15T10:03:48;95674.84;;;14.68;39.56
76478;BME280;65309;49.790;18.972;2023-04-15T10:08:52;95661.53;;;13.84;41.76
76478;BME280;65309;49.790;18.972;2023-04-15T10:13:55;95665.50;;;14.20;41.46
76478;BME280;65309;49.790;18.972;2023-04-15T10:19:01;95673.25;;;14.27;42.68
76478;BME280;65309;49.790;18.972;2023-04-15T10:24:05;95678.22;;;14.48;40.85
76478;BME280;65309;49.790;18.972;2023-04-15T10:29:08;95672.63;;;13.65;39.44
76478;BME280;65309;49.790;18.972;2023-04-15T10:34:13;95669.16;;;13.97;40.33
76478;BME280;65309;49.790;18.972;2023-04-15T10:39:37;95665.81;;;14.36;38.43
76478;BME280;65309;49.790;18.972;2023-04-15T10:44:41;95674.53;;;14.85;39.23
76478;BME280;65309;49.790;18.972;2023-04-15T10:49:46;95682.75;;;14.64;38.91
76478;BME280;65309;49.790;18.972;2023-04-15T10:54:49;95673.44;;;14.29;41.30
76478;BME280;65309;49.790;18.972;2023-04-15T11:00:11;95680.31;;;15.26;39.25
76478;BME280;65309;49.790;18.972;2023-04-15T11:05:16;95678.47;;;15.15;38.37
76478;BME280;65309;49.790;18.972;2023-04-15T11:10:50;95681.84;;;15.74;38.75
76478;BME280;65309;49.790;18.972;2023-04-15T11:15:57;95679.78;;;15.28;39.46
76478;BME280;65309;49.790;18.972;2023-04-15T11:21:02;95682.47;;;14.94;39.68
76478;BME280;65309;49.790;18.972;2023-04-15T11:26:06;95683.84;;;15.27;36.56
76478;BME280;65309;49.790;18.972;2023-04-15T11:31:11;95678.47;;;15.29;36.45
76478;BME280;65309;49.790;18.972;2023-04-15T11:36:15;95677.66;;;14.94;37.06
76478;BME280;65309;49.790;18.972;2023-04-15T11:41:19;95681.41;;;15.10;38.23
76478;BME280;65309;49.790;18.972;2023-04-15T11:46:28;95670.75;;;15.48;40.19
76478;BME280;65309;49.790;18.972;2023-04-15T11:51:32;95682.38;;;15.86;43.10
76478;BME280;65309;49.790;18.972;2023-04-15T11:56:35;95678.41;;;14.37;46.85
76478;BME280;65309;49.790;18.972;2023-04-15T12:01:38;95689.03;;;13.50;46.90
76478;BME280;65309;49.790;18.972;2023-04-15T12:06:49;95686.63;;;13.41;46.70
76478;BME280;65309;49.790;18.972;2023-04-15T12:11:51;95679.41;;;13.51;43.34
76478;BME280;65309;49.790;18.972;2023-04-15T12:16:56;95696.69;;;13.44;45.33
76478;BME280;65309;49.790;18.972;2023-04-15T12:22:03;95693.22;;;13.38;46.93
76478;BME280;65309;49.790;18.972;2023-04-15T12:27:07;95696.19;;;13.21;47.30
76478;BME280;65309;49.790;18.972;2023-04-15T12:32:10;95689.09;;;13.26;46.01
76478;BME280;65309;49.790;18.972;2023-04-15T12:37:14;95690.75;;;13.34;47.13
76478;BME280;65309;49.790;18.972;2023-04-15T12:42:17;95694.47;;;13.18;46.98
76478;BME280;65309;49.790;18.972;2023-04-15T12:47:19;95696.31;;;12.86;47.90
76478;BME280;65309;49.790;18.972;2023-04-15T12:52:22;95698.16;;;12.78;48.70
76478;BME280;65309;49.790;18.972;2023-04-15T12:57:25;95706.56;;;12.72;48.16
76478;BME280;65309;49.790;18.972;2023-04-15T13:02:28;95707.06;;;12.71;47.47
76478;BME280;65309;49.790;18.972;2023-04-15T13:07:31;95709.16;;;12.65;47.35
76478;BME280;65309;49.790;18.972;2023-04-15T13:12:33;95714.69;;;12.65;47.98
76478;BME280;65309;49.790;18.972;2023-04-15T13:17:38;95715.97;;;12.64;49.16
76478;BME280;65309;49.790;18.972;2023-04-15T13:22:42;95725.75;;;12.40;50.50
76478;BME280;65309;49.790;18.972;2023-04-15T13:27:44;95739.75;;;11.83;52.71
76478;BME280;65309;49.790;18.972;2023-04-15T13:32:46;95742.22;;;11.92;51.91
76478;BME280;65309;49.790;18.972;2023-04-15T13:37:53;95743.69;;;11.98;53.50
76478;BME280;65309;49.790;18.972;2023-04-15T13:42:57;95740.75;;;12.26;52.53
76478;BME280;65309;49.790;18.972;2023-04-15T13:47:59;95745.41;;;12.07;55.16
76478;BME280;65309;49.790;18.972;2023-04-15T13:53:03;95746.72;;;11.95;56.26
76478;BME280;65309;49.790;18.972;2023-04-15T13:58:05;95755.72;;;12.42;56.55
76478;BME280;65309;49.790;18.972;2023-04-15T14:03:07;95763.84;;;11.99;57.50
76478;BME280;65309;49.790;18.972;2023-04-15T14:08:10;95768.53;;;11.63;57.28
76478;BME280;65309;49.790;18.972;2023-04-15T14:13:12;95763.63;;;11.39;58.46
76478;BME280;65309;49.790;18.972;2023-04-15T14:18:15;95775.28;;;11.79;56.96
76478;BME280;65309;49.790;18.972;2023-04-15T14:23:19;95789.78;;;11.38;58.59
76478;BME280;65309;49.790;18.972;2023-04-15T14:28:21;95789.03;;;11.43;59.88
76478;BME280;65309;49.790;18.972;2023-04-15T14:33:23;95787.25;;;11.40;59.91
76478;BME280;65309;49.790;18.972;2023-04-15T14:38:26;95797.13;;;11.30;62.52
76478;BME280;65309;49.790;18.972;2023-04-15T14:43:28;95816.28;;;11.12;65.67
76478;BME280;65309;49.790;18.972;2023-04-15T14:48:30;95824.84;;;10.69;69.49
76478;BME280;65309;49.790;18.972;2023-04-15T14:53:34;95831.38;;;10.33;74.02
76478;BME280;65309;49.790;18.972;2023-04-15T14:58:36;95842.09;;;10.03;77.37
76478;BME280;65309;49.790;18.972;2023-04-15T15:03:38;95850.56;;;9.83;76.59
76478;BME280;65309;49.790;18.972;2023-04-15T15:08:41;95836.41;;;9.58;75.16
76478;BME280;65309;49.790;18.972;2023-04-15T15:13:43;95828.81;;;9.00;80.72
76478;BME280;65309;49.790;18.972;2023-04-15T15:18:45;95850.69;;;9.09;80.35
76478;BME280;65309;49.790;18.972;2023-04-15T15:23:49;95861.44;;;9.07;81.69
76478;BME280;65309;49.790;18.972;2023-04-15T15:28:51;95864.91;;;8.96;78.94
76478;BME280;65309;49.790;18.972;2023-04-15T15:33:53;95871.59;;;8.90;86.45
76478;BME280;65309;49.790;18.972;2023-04-15T15:38:56;95886.47;;;8.98;84.31
76478;BME280;65309;49.790;18.972;2023-04-15T15:44:00;95896.88;;;9.14;81.96
76478;BME280;65309;49.790;18.972;2023-04-15T15:49:02;95901.91;;;8.84;83.92
76478;BME280;65309;49.790;18.972;2023-04-15T15:54:06;95901.50;;;8.65;84.19
76478;BME280;65309;49.790;18.972;2023-04-15T15:59:08;95901.56;;;8.71;83.31
76478;BME280;65309;49.790;18.972;2023-04-15T16:04:10;95898.69;;;8.60;84.48
76478;BME280;65309;49.790;18.972;2023-04-15T16:09:14;95894.06;;;8.46;85.46
76478;BME280;65309;49.790;18.972;2023-04-15T16:14:17;95889.44;;;8.37;85.46
76478;BME280;65309;49.790;18.972;2023-04-15T16:19:19;95894.81;;;8.46;85.09
76478;BME280;65309;49.790;18.972;2023-04-15T16:24:23;95890.28;;;8.43;86.74
76478;BME280;65309;49.790;18.972;2023-04-15T16:29:25;95874.34;;;8.07;87.35
76478;BME280;65309;49.790;18.972;2023-04-15T16:34:27;95867.88;;;8.10;88.70
76478;BME280;65309;49.790;18.972;2023-04-15T16:39:30;95880.72;;;8.18;86.83
76478;BME280;65309;49.790;18.972;2023-04-15T16:44:32;95886.59;;;7.85;87.35
76478;BME280;65309;49.790;18.972;2023-04-15T16:49:34;95885.78;;;8.00;87.53
76478;BME280;65309;49.790;18.972;2023-04-15T16:54:38;95888.25;;;7.98;88.89
76478;BME280;65309;49.790;18.972;2023-04-15T16:59:42;95903.06;;;8.00;88.65
76478;BME280;65309;49.790;18.972;2023-04-15T17:04:44;95905.66;;;7.89;88.99
76478;BME280;65309;49.790;18.972;2023-04-15T17:09:47;95922.81;;;7.99;88.87
76478;BME280;65309;49.790;18.972;2023-04-15T17:14:50;95931.91;;;8.05;87.19
76478;BME280;65309;49.790;18.972;2023-04-15T17:19:52;95946.75;;;8.13;84.72
76478;BME280;65309;49.790;18.972;2023-04-15T17:24:55;95948.81;;;7.98;85.82
76478;BME280;65309;49.790;18.972;2023-04-15T17:29:57;95954.88;;;8.02;86.86
76478;BME280;65309;49.790;18.972;2023-04-15T17:34:59;95954.28;;;7.92;87.00
76478;BME280;65309;49.790;18.972;2023-04-15T17:40:03;95967.81;;;7.96;86.65
76478;BME280;65309;49.790;18.972;2023-04-15T17:45:10;95973.25;;;7.90;87.73
76478;BME280;65309;49.790;18.972;2023-04-15T17:50:12;95978.72;;;7.84;89.01
76478;BME280;65309;49.790;18.972;2023-04-15T17:55:15;95987.44;;;7.83;89.81
76478;BME280;65309;49.790;18.972;2023-04-15T18:00:17;96000.44;;;7.82;89.95
76478;BME280;65309;49.790;18.972;2023-04-15T18:05:20;96011.34;;;7.92;90.69
76478;BME280;65309;49.790;18.972;2023-04-15T18:10:23;96010.78;;;7.88;91.55
76478;BME280;65309;49.790;18.972;2023-04-15T18:15:25;96026.59;;;7.58;93.82
76478;BME280;65309;49.790;18.972;2023-04-15T18:20:28;96023.25;;;7.68;93.88
76478;BME280;65309;49.790;18.972;2023-04-15T18:25:31;96038.38;;;7.58;94.60
76478;BME280;65309;49.790;18.972;2023-04-15T18:30:34;96035.50;;;7.67;94.39
76478;BME280;65309;49.790;18.972;2023-04-15T18:35:36;96045.00;;;7.66;94.42
76478;BME280;65309;49.790;18.972;2023-04-15T18:40:40;96050.31;;;7.70;94.74
76478;BME280;65309;49.790;18.972;2023-04-15T18:45:42;96042.72;;;7.65;94.70
76478;BME280;65309;49.790;18.972;2023-04-15T18:50:44;96049.38;;;7.58;95.23
76478;BME280;65309;49.790;18.972;2023-04-15T18:55:48;96057.72;;;7.64;95.09
76478;BME280;65309;49.790;18.972;2023-04-15T19:00:50;96063.59;;;7.71;94.36
76478;BME280;65309;49.790;18.972;2023-04-15T19:05:52;96076.97;;;7.78;92.74
76478;BME280;65309;49.790;18.972;2023-04-15T19:10:55;96079.28;;;7.51;94.08
76478;BME280;65309;49.790;18.972;2023-04-15T19:15:57;96088.47;;;7.33;94.93
76478;BME280;65309;49.790;18.972;2023-04-15T19:20:59;96089.44;;;7.30;93.52
76478;BME280;65309;49.790;18.972;2023-04-15T19:26:03;96099.00;;;7.20;91.41
76478;BME280;65309;49.790;18.972;2023-04-15T19:31:05;96105.34;;;7.11;89.13
76478;BME280;65309;49.790;18.972;2023-04-15T19:36:07;96100.19;;;6.89;89.80
76478;BME280;65309;49.790;18.972;2023-04-15T19:41:10;96111.31;;;6.95;89.41
76478;BME280;65309;49.790;18.972;2023-04-15T19:46:13;96108.66;;;7.01;88.59
76478;BME280;65309;49.790;18.972;2023-04-15T19:51:15;96111.59;;;7.12;85.86
76478;BME280;65309;49.790;18.972;2023-04-15T19:56:18;96114.56;;;7.23;85.12
76478;BME280;65309;49.790;18.972;2023-04-15T20:01:21;96123.09;;;7.25;82.33
76478;BME280;65309;49.790;18.972;2023-04-15T20:06:23;96129.16;;;7.44;80.24
76478;BME280;65309;49.790;18.972;2023-04-15T20:11:26;96133.63;;;7.41;83.34
76478;BME280;65309;49.790;18.972;2023-04-15T20:16:50;96135.91;;;7.28;83.86
76478;BME280;65309;49.790;18.972;2023-04-15T20:21:52;96142.31;;;7.10;87.03
76478;BME280;65309;49.790;18.972;2023-04-15T20:26:56;96138.16;;;7.15;87.82
76478;BME280;65309;49.790;18.972;2023-04-15T20:31:58;96146.84;;;6.99;90.38
76478;BME280;65309;49.790;18.972;2023-04-15T20:37:00;96148.31;;;6.85;90.38
76478;BME280;65309;49.790;18.972;2023-04-15T20:42:03;96159.38;;;7.00;89.38
76478;BME280;65309;49.790;18.972;2023-04-15T20:47:06;96171.38;;;6.87;89.89
76478;BME280;65309;49.790;18.972;2023-04-15T20:52:08;96174.34;;;6.99;88.63
76478;BME280;65309;49.790;18.972;2023-04-15T20:57:11;96179.06;;;6.98;89.42
76478;BME280;65309;49.790;18.972;2023-04-15T21:02:13;96185.59;;;6.86;90.00
76478;BME280;65309;49.790;18.972;2023-04-15T21:07:15;96194.06;;;6.73;90.69
76478;BME280;65309;49.790;18.972;2023-04-15T21:12:19;96199.56;;;6.73;89.20
76478;BME280;65309;49.790;18.972;2023-04-15T21:17:21;96201.91;;;6.66;87.64
76478;BME280;65309;49.790;18.972;2023-04-15T21:22:23;96215.41;;;6.78;87.37
76478;BME280;65309;49.790;18.972;2023-04-15T21:27:26;96219.06;;;6.84;86.53
76478;BME280;65309;49.790;18.972;2023-04-15T21:32:28;96224.66;;;6.66;87.42
76478;BME280;65309;49.790;18.972;2023-04-15T21:37:31;96233.16;;;6.68;87.51
76478;BME280;65309;49.790;18.972;2023-04-15T21:42:34;96230.31;;;6.63;88.60
76478;BME280;65309;49.790;18.972;2023-04-15T21:47:36;96238.22;;;6.70;88.20
76478;BME280;65309;49.790;18.972;2023-04-15T21:52:58;96239.50;;;6.83;85.86
76478;BME280;65309;49.790;18.972;2023-04-15T21:58:02;96247.41;;;6.90;85.58
76478;BME280;65309;49.790;18.972;2023-04-15T22:03:03;96251.31;;;6.75;86.27
76478;BME280;65309;49.790;18.972;2023-04-15T22:08:06;96252.72;;;6.70;86.68
76478;BME280;65309;49.790;18.972;2023-04-15T22:13:09;96259.75;;;6.71;88.04
76478;BME280;65309;49.790;18.972;2023-04-15T22:18:13;96259.50;;;6.84;85.92
76478;BME280;65309;49.790;18.972;2023-04-15T22:23:15;96257.75;;;6.96;84.49
76478;BME280;65309;49.790;18.972;2023-04-15T22:28:22;96269.25;;;6.85;85.13
76478;BME280;65309;49.790;18.972;2023-04-15T22:33:24;96273.69;;;6.59;86.59
76478;BME280;65309;49.790;18.972;2023-04-15T22:38:26;96279.78;;;6.63;85.48
76478;BME280;65309;49.790;18.972;2023-04-15T22:43:29;96283.59;;;6.56;85.81
76478;BME280;65309;49.790;18.972;2023-04-15T22:48:32;96287.94;;;6.39;86.67
76478;BME280;65309;49.790;18.972;2023-04-15T22:53:34;96300.97;;;6.29;86.99
76478;BME280;65309;49.790;18.972;2023-04-15T22:58:38;96307.53;;;6.23;87.17
76478;BME280;65309;49.790;18.972;2023-04-15T23:03:39;96311.97;;;6.11;87.02
76478;BME280;65309;49.790;18.972;2023-04-15T23:08:59;96318.91;;;5.88;87.13
76478;BME280;65309;49.790;18.972;2023-04-15T23:14:02;96314.13;;;5.43;87.65
76478;BME280;65309;49.790;18.972;2023-04-15T23:19:04;96320.81;;;5.15;89.33
76478;BME280;65309;49.790;18.972;2023-04-15T23:24:07;96323.50;;;4.97;90.73
76478;BME280;65309;49.790;18.972;2023-04-15T23:29:10;96328.63;;;4.77;91.49
76478;BME280;65309;49.790;18.972;2023-04-15T23:34:12;96324.41;;;4.45;92.05
76478;BME280;65309;49.790;18.972;2023-04-15T23:39:14;96331.03;;;4.26;93.60
76478;BME280;65309;49.790;18.972;2023-04-15T23:44:17;96323.28;;;4.02;94.08
76478;BME280;65309;49.790;18.972;2023-04-15T23:49:19;96330.41;;;3.78;94.29
76478;BME280;65309;49.790;18.972;2023-04-15T23:54:21;96334.28;;;3.68;94.66
76478;BME280;65309;49.790;18.972;2023-04-15T23:59:25;96337.59;;;3.63;95.35
